sensor_id;sensor_type;location;lat;lon;timestamp;P1;durP1;ratioP1;P2;durP2;ratioP2
20044;SDS011;10183;47.808;9.476;2024-03-23T00:56:04;33.57;;;30.50;;
20044;SDS011;10183;47.808;9.476;2024-03-23T00:58:30;33.03;;;30.03;;
20044;SDS011;10183;47.808;9.476;2024-03-23T01:00:55;32.07;;;29.37;;
20044;SDS011;10183;47.808;9.476;2024-03-23T01:03:21;32.30;;;29.40;;
20044;SDS011;10183;47.808;9.476;2024-03-23T01:05:47;34.80;;;31.70;;
20044;SDS011;10183;47.808;9.476;2024-03-23T01:08:13;34.20;;;31.20;;
20044;SDS011;10183;47.808;9.476;2024-03-23T01:10:39;33.37;;;30.37;;
20044;SDS011;10183;47.808;9.476;2024-03-23T01:13:05;33.37;;;30.43;;
20044;SDS011;10183;47.808;9.476;2024-03-23T01:15:31;34.40;;;31.30;;
20044;SDS011;10183;47.808;9.476;2024-03-23T01:17:57;33.10;;;30.20;;
20044;SDS011;10183;47.808;9.476;2024-03-23T01:20:22;35.33;;;32.23;;
20044;SDS011;10183;47.808;9.476;2024-03-23T01:22:48;34.57;;;31.27;;
20044;SDS011;10183;47.808;9.476;2024-03-23T01:25:13;31.50;;;28.50;;
20044;SDS011;10183;47.808;9.476;2024-03-23T01:27:39;33.20;;;30.10;;
20044;SDS011;10183;47.808;9.476;2024-03-23T01:30:05;33.50;;;30.37;;
20044;SDS011;10183;47.808;9.476;2024-03-23T01:32:32;34.13;;;31.13;;
20044;SDS011;10183;47.808;9.476;2024-03-23T01:34:58;33.90;;;30.80;;
20044;SDS011;10183;47.808;9.476;2024-03-23T01:37:23;34.07;;;31.07;;
20044;SDS011;10183;47.808;9.476;2024-03-23T01:39:49;36.03;;;32.77;;
20044;SDS011;10183;47.808;9.476;2024-03-23T01:42:14;34.37;;;31.37;;
20044;SDS011;10183;47.808;9.476;2024-03-23T01:44:40;36.83;;;33.13;;
20044;SDS011;10183;47.808;9.476;2024-03-23T01:47:06;37.80;;;34.20;;
20044;SDS011;10183;47.808;9.476;2024-03-23T01:49:32;37.90;;;34.60;;
20044;SDS011;10183;47.808;9.476;2024-03-23T01:51:58;35.07;;;31.57;;
20044;SDS011;10183;47.808;9.476;2024-03-23T01:54:24;39.10;;;35.63;;
20044;SDS011;10183;47.808;9.476;2024-03-23T01:56:50;40.63;;;36.90;;
20044;SDS011;10183;47.808;9.476;2024-03-23T01:59:16;39.70;;;36.10;;
20044;SDS011;10183;47.808;9.476;2024-03-23T02:01:42;38.57;;;35.23;;
20044;SDS011;10183;47.808;9.476;2024-03-23T02:04:07;36.77;;;33.30;;
20044;SDS011;10183;47.808;9.476;2024-03-23T02:06:34;35.90;;;32.60;;
20044;SDS011;10183;47.808;9.476;2024-03-23T02:09:00;35.13;;;31.53;;
20044;SDS011;10183;47.808;9.476;2024-03-23T02:11:26;36.37;;;32.83;;
20044;SDS011;10183;47.808;9.476;2024-03-23T02:13:51;35.47;;;32.17;;
20044;SDS011;10183;47.808;9.476;2024-03-23T02:16:17;33.87;;;30.23;;
20044;SDS011;10183;47.808;9.476;2024-03-23T02:18:43;33.07;;;29.77;;
20044;SDS011;10183;47.808;9.476;2024-03-23T02:21:08;33.57;;;30.37;;
20044;SDS011;10183;47.808;9.476;2024-03-23T02:23:34;33.00;;;29.73;;
20044;SDS011;10183;47.808;9.476;2024-03-23T02:26:00;31.83;;;28.37;;
20044;SDS011;10183;47.808;9.476;2024-03-23T02:28:25;31.63;;;28.47;;
20044;SDS011;10183;47.808;9.476;2024-03-23T02:30:51;31.87;;;28.77;;
20044;SDS011;10183;47.808;9.476;2024-03-23T02:33:17;33.40;;;30.20;;
20044;SDS011;10183;47.808;9.476;2024-03-23T02:35:43;32.90;;;29.60;;
20044;SDS011;10183;47.808;9.476;2024-03-23T02:38:10;32.87;;;29.67;;
20044;SDS011;10183;47.808;9.476;2024-03-23T02:40:35;32.33;;;29.33;;
20044;SDS011;10183;47.808;9.476;2024-03-23T02:43:02;33.50;;;30.50;;
20044;SDS011;10183;47.808;9.476;2024-03-23T02:45:28;32.27;;;29.27;;
20044;SDS011;10183;47.808;9.476;2024-03-23T02:47:54;34.83;;;31.70;;
20044;SDS011;10183;47.808;9.476;2024-03-23T02:50:19;34.43;;;31.40;;
20044;SDS011;10183;47.808;9.476;2024-03-23T02:52:45;34.03;;;31.00;;
20044;SDS011;10183;47.808;9.476;2024-03-23T02:55:11;33.63;;;30.63;;
20044;SDS011;10183;47.808;9.476;2024-03-23T02:57:37;33.27;;;30.10;;
20044;SDS011;10183;47.808;9.476;2024-03-23T03:00:03;34.93;;;31.27;;
20044;SDS011;10183;47.808;9.476;2024-03-23T03:02:30;32.27;;;29.20;;
20044;SDS011;10183;47.808;9.476;2024-03-23T03:04:56;34.80;;;31.50;;
20044;SDS011;10183;47.808;9.476;2024-03-23T03:07:21;33.93;;;30.60;;
20044;SDS011;10183;47.808;9.476;2024-03-23T03:09:47;33.67;;;30.43;;
20044;SDS011;10183;47.808;9.476;2024-03-23T03:12:13;32.07;;;28.97;;
20044;SDS011;10183;47.808;9.476;2024-03-23T03:14:38;32.80;;;29.60;;
20044;SDS011;10183;47.808;9.476;2024-03-23T03:17:04;33.97;;;30.60;;
20044;SDS011;10183;47.808;9.476;2024-03-23T03:19:30;33.87;;;30.47;;
20044;SDS011;10183;47.808;9.476;2024-03-23T03:21:55;35.73;;;32.33;;
20044;SDS011;10183;47.808;9.476;2024-03-23T03:24:21;35.73;;;32.43;;
20044;SDS011;10183;47.808;9.476;2024-03-23T03:26:46;34.43;;;31.13;;
20044;SDS011;10183;47.808;9.476;2024-03-23T03:29:12;33.97;;;30.53;;
20044;SDS011;10183;47.808;9.476;2024-03-23T03:31:38;31.50;;;28.40;;
20044;SDS011;10183;47.808;9.476;2024-03-23T03:34:04;32.47;;;29.47;;
20044;SDS011;10183;47.808;9.476;2024-03-23T03:36:30;32.00;;;28.90;;
20044;SDS011;10183;47.808;9.476;2024-03-23T03:38:56;33.10;;;30.10;;
20044;SDS011;10183;47.808;9.476;2024-03-23T03:41:21;32.10;;;29.20;;
20044;SDS011;10183;47.808;9.476;2024-03-23T03:43:47;32.40;;;29.30;;
20044;SDS011;10183;47.808;9.476;2024-03-23T03:46:13;33.00;;;29.97;;
20044;SDS011;10183;47.808;9.476;2024-03-23T03:48:38;32.93;;;29.80;;
20044;SDS011;10183;47.808;9.476;2024-03-23T03:51:04;31.97;;;28.97;;
20044;SDS011;10183;47.808;9.476;2024-03-23T03:53:30;33.53;;;30.63;;
20044;SDS011;10183;47.808;9.476;2024-03-23T03:55:56;31.97;;;29.17;;
20044;SDS011;10183;47.808;9.476;2024-03-23T03:58:22;32.60;;;29.60;;
20044;SDS011;10183;47.808;9.476;2024-03-23T04:00:47;33.77;;;30.70;;
20044;SDS011;10183;47.808;9.476;2024-03-23T04:03:13;33.20;;;30.00;;
20044;SDS011;10183;47.808;9.476;2024-03-23T04:05:38;31.80;;;28.80;;
20044;SDS011;10183;47.808;9.476;2024-03-23T04:08:05;28.23;;;25.63;;
20044;SDS011;10183;47.808;9.476;2024-03-23T04:10:32;30.80;;;28.00;;
20044;SDS011;10183;47.808;9.476;2024-03-23T04:12:57;32.63;;;29.83;;
20044;SDS011;10183;47.808;9.476;2024-03-23T04:15:23;31.63;;;29.03;;
20044;SDS011;10183;47.808;9.476;2024-03-23T04:17:48;30.53;;;27.83;;
20044;SDS011;10183;47.808;9.476;2024-03-23T04:20:14;31.00;;;28.30;;
20044;SDS011;10183;47.808;9.476;2024-03-23T04:22:42;29.70;;;26.93;;
20044;SDS011;10183;47.808;9.476;2024-03-23T04:25:10;30.33;;;27.50;;
20044;SDS011;10183;47.808;9.476;2024-03-23T04:27:36;30.00;;;27.23;;
20044;SDS011;10183;47.808;9.476;2024-03-23T04:30:02;26.57;;;24.37;;
20044;SDS011;10183;47.808;9.476;2024-03-23T04:32:30;30.60;;;27.90;;
20044;SDS011;10183;47.808;9.476;2024-03-23T04:34:56;31.33;;;28.73;;
20044;SDS011;10183;47.808;9.476;2024-03-23T04:37:22;32.20;;;29.03;;
20044;SDS011;10183;47.808;9.476;2024-03-23T04:39:48;31.50;;;28.80;;
20044;SDS011;10183;47.808;9.476;2024-03-23T04:42:16;30.87;;;27.80;;
20044;SDS011;10183;47.808;9.476;2024-03-23T04:44:42;29.87;;;27.10;;
20044;SDS011;10183;47.808;9.476;2024-03-23T04:47:08;30.83;;;28.33;;
20044;SDS011;10183;47.808;9.476;2024-03-23T04:49:33;29.87;;;27.37;;
20044;SDS011;10183;47.808;9.476;2024-03-23T04:52:01;32.83;;;29.90;;
20044;SDS011;10183;47.808;9.476;2024-03-23T04:54:29;33.27;;;30.37;;
20044;SDS011;10183;47.808;9.476;2024-03-23T04:56:57;32.23;;;29.33;;
20044;SDS011;10183;47.808;9.476;2024-03-23T04:59:23;31.00;;;28.20;;
20044;SDS011;10183;47.808;9.476;2024-03-23T05:01:48;30.80;;;28.10;;
20044;SDS011;10183;47.808;9.476;2024-03-23T05:04:14;30.80;;;27.80;;
20044;SDS011;10183;47.808;9.476;2024-03-23T05:06:39;30.60;;;27.47;;
20044;SDS011;10183;47.808;9.476;2024-03-23T05:09:05;29.80;;;26.93;;
20044;SDS011;10183;47.808;9.476;2024-03-23T05:11:32;43.00;;;38.70;;
20044;SDS011;10183;47.808;9.476;2024-03-23T05:14:00;40.47;;;36.27;;
20044;SDS011;10183;47.808;9.476;2024-03-23T05:16:28;36.20;;;32.30;;
20044;SDS011;10183;47.808;9.476;2024-03-23T05:18:53;35.63;;;31.83;;
20044;SDS011;10183;47.808;9.476;2024-03-23T05:21:19;32.23;;;28.90;;
20044;SDS011;10183;47.808;9.476;2024-03-23T05:23:45;34.97;;;29.77;;
20044;SDS011;10183;47.808;9.476;2024-03-23T05:26:10;37.07;;;31.07;;
20044;SDS011;10183;47.808;9.476;2024-03-23T05:28:36;36.03;;;32.13;;
20044;SDS011;10183;47.808;9.476;2024-03-23T05:31:01;34.23;;;29.77;;
20044;SDS011;10183;47.808;9.476;2024-03-23T05:33:27;37.97;;;34.77;;
20044;SDS011;10183;47.808;9.476;2024-03-23T05:36:00;36.80;;;33.37;;
20044;SDS011;10183;47.808;9.476;2024-03-23T05:38:26;35.20;;;32.03;;
20044;SDS011;10183;47.808;9.476;2024-03-23T05:41:02;38.60;;;35.17;;
20044;SDS011;10183;47.808;9.476;2024-03-23T05:43:27;40.50;;;36.73;;
20044;SDS011;10183;47.808;9.476;2024-03-23T05:45:54;37.30;;;33.60;;
20044;SDS011;10183;47.808;9.476;2024-03-23T05:48:20;36.23;;;32.97;;
20044;SDS011;10183;47.808;9.476;2024-03-23T05:50:47;36.17;;;32.97;;
20044;SDS011;10183;47.808;9.476;2024-03-23T05:53:14;41.70;;;38.50;;
20044;SDS011;10183;47.808;9.476;2024-03-23T05:55:43;44.60;;;40.77;;
20044;SDS011;10183;47.808;9.476;2024-03-23T05:58:08;36.50;;;33.50;;
20044;SDS011;10183;47.808;9.476;2024-03-23T06:00:35;37.80;;;35.00;;
20044;SDS011;10183;47.808;9.476;2024-03-23T06:03:01;38.57;;;35.27;;
20044;SDS011;10183;47.808;9.476;2024-03-23T06:05:26;41.07;;;37.37;;
20044;SDS011;10183;47.808;9.476;2024-03-23T06:07:52;41.17;;;37.57;;
20044;SDS011;10183;47.808;9.476;2024-03-23T06:10:18;41.87;;;38.27;;
20044;SDS011;10183;47.808;9.476;2024-03-23T06:12:45;36.50;;;33.20;;
20044;SDS011;10183;47.808;9.476;2024-03-23T06:15:11;34.87;;;31.27;;
20044;SDS011;10183;47.808;9.476;2024-03-23T06:17:37;37.07;;;33.07;;
20044;SDS011;10183;47.808;9.476;2024-03-23T06:20:05;38.10;;;34.40;;
20044;SDS011;10183;47.808;9.476;2024-03-23T06:22:31;32.27;;;28.97;;
20044;SDS011;10183;47.808;9.476;2024-03-23T06:24:58;29.87;;;26.87;;
20044;SDS011;10183;47.808;9.476;2024-03-23T06:27:24;34.60;;;31.30;;
20044;SDS011;10183;47.808;9.476;2024-03-23T06:29:50;46.10;;;41.70;;
20044;SDS011;10183;47.808;9.476;2024-03-23T06:32:16;35.93;;;32.43;;
20044;SDS011;10183;47.808;9.476;2024-03-23T06:34:42;35.13;;;31.50;;
20044;SDS011;10183;47.808;9.476;2024-03-23T06:37:08;33.90;;;30.60;;
20044;SDS011;10183;47.808;9.476;2024-03-23T06:39:35;37.40;;;34.00;;
20044;SDS011;10183;47.808;9.476;2024-03-23T06:42:01;34.73;;;31.40;;
20044;SDS011;10183;47.808;9.476;2024-03-23T06:44:27;28.40;;;25.53;;
20044;SDS011;10183;47.808;9.476;2024-03-23T06:46:53;29.83;;;27.07;;
20044;SDS011;10183;47.808;9.476;2024-03-23T06:49:18;31.33;;;28.43;;
20044;SDS011;10183;47.808;9.476;2024-03-23T06:51:44;28.83;;;26.13;;
20044;SDS011;10183;47.808;9.476;2024-03-23T06:54:10;28.83;;;25.83;;
20044;SDS011;10183;47.808;9.476;2024-03-23T06:56:36;29.80;;;26.80;;
20044;SDS011;10183;47.808;9.476;2024-03-23T06:59:01;28.53;;;25.67;;
20044;SDS011;10183;47.808;9.476;2024-03-23T07:01:27;29.23;;;26.20;;
20044;SDS011;10183;47.808;9.476;2024-03-23T07:03:53;30.80;;;27.67;;
20044;SDS011;10183;47.808;9.476;2024-03-23T07:06:19;28.83;;;25.77;;
20044;SDS011;10183;47.808;9.476;2024-03-23T07:08:45;31.60;;;28.20;;
20044;SDS011;10183;47.808;9.476;2024-03-23T07:11:11;29.83;;;26.67;;
20044;SDS011;10183;47.808;9.476;2024-03-23T07:13:36;26.40;;;23.80;;
20044;SDS011;10183;47.808;9.476;2024-03-23T07:16:02;29.40;;;25.67;;
20044;SDS011;10183;47.808;9.476;2024-03-23T07:18:27;27.40;;;24.43;;
20044;SDS011;10183;47.808;9.476;2024-03-23T07:20:54;32.53;;;27.60;;
20044;SDS011;10183;47.808;9.476;2024-03-23T07:23:21;34.87;;;29.33;;
20044;SDS011;10183;47.808;9.476;2024-03-23T07:25:57;35.87;;;30.87;;
20044;SDS011;10183;47.808;9.476;2024-03-23T07:28:26;33.17;;;29.63;;
20044;SDS011;10183;47.808;9.476;2024-03-23T07:31:06;32.53;;;28.60;;
20044;SDS011;10183;47.808;9.476;2024-03-23T07:33:36;31.20;;;26.17;;
20044;SDS011;10183;47.808;9.476;2024-03-23T07:36:06;35.60;;;30.70;;
20044;SDS011;10183;47.808;9.476;2024-03-23T07:38:34;33.40;;;29.90;;
20044;SDS011;10183;47.808;9.476;2024-03-23T07:41:05;35.17;;;31.57;;
20044;SDS011;10183;47.808;9.476;2024-03-23T07:43:32;34.17;;;29.83;;
20044;SDS011;10183;47.808;9.476;2024-03-23T07:45:58;25.90;;;23.10;;
20044;SDS011;10183;47.808;9.476;2024-03-23T07:48:24;28.07;;;25.07;;
20044;SDS011;10183;47.808;9.476;2024-03-23T07:51:32;28.40;;;25.30;;
20044;SDS011;10183;47.808;9.476;2024-03-23T07:53:43;26.63;;;23.73;;
20044;SDS011;10183;47.808;9.476;2024-03-23T07:56:11;27.60;;;24.90;;
20044;SDS011;10183;47.808;9.476;2024-03-23T07:58:37;27.90;;;25.13;;
20044;SDS011;10183;47.808;9.476;2024-03-23T08:01:07;26.67;;;23.83;;
20044;SDS011;10183;47.808;9.476;2024-03-23T08:03:34;27.70;;;24.70;;
20044;SDS011;10183;47.808;9.476;2024-03-23T08:06:11;26.70;;;23.90;;
20044;SDS011;10183;47.808;9.476;2024-03-23T08:08:37;29.03;;;26.03;;
20044;SDS011;10183;47.808;9.476;2024-03-23T08:11:03;27.07;;;24.27;;
20044;SDS011;10183;47.808;9.476;2024-03-23T08:13:29;26.67;;;23.87;;
20044;SDS011;10183;47.808;9.476;2024-03-23T08:15:59;26.10;;;23.37;;
20044;SDS011;10183;47.808;9.476;2024-03-23T08:18:25;26.17;;;23.57;;
20044;SDS011;10183;47.808;9.476;2024-03-23T08:21:01;25.67;;;23.37;;
20044;SDS011;10183;47.808;9.476;2024-03-23T08:23:28;26.23;;;23.93;;
20044;SDS011;10183;47.808;9.476;2024-03-23T08:26:01;25.80;;;23.43;;
20044;SDS011;10183;47.808;9.476;2024-03-23T08:28:28;26.20;;;23.50;;
20044;SDS011;10183;47.808;9.476;2024-03-23T08:30:55;23.47;;;20.97;;
20044;SDS011;10183;47.808;9.476;2024-03-23T08:33:21;23.40;;;20.90;;
20044;SDS011;10183;47.808;9.476;2024-03-23T08:35:56;23.27;;;20.87;;
20044;SDS011;10183;47.808;9.476;2024-03-23T08:38:22;28.63;;;25.83;;
20044;SDS011;10183;47.808;9.476;2024-03-23T08:40:58;29.07;;;26.17;;
20044;SDS011;10183;47.808;9.476;2024-03-23T08:43:31;28.83;;;25.73;;
20044;SDS011;10183;47.808;9.476;2024-03-23T08:46:04;27.37;;;24.37;;
20044;SDS011;10183;47.808;9.476;2024-03-23T08:48:40;31.10;;;28.03;;
20044;SDS011;10183;47.808;9.476;2024-03-23T08:51:10;32.23;;;29.03;;
20044;SDS011;10183;47.808;9.476;2024-03-23T08:53:38;30.97;;;27.77;;
20044;SDS011;10183;47.808;9.476;2024-03-23T08:56:05;29.27;;;26.07;;
20044;SDS011;10183;47.808;9.476;2024-03-23T08:58:32;30.53;;;27.43;;
20044;SDS011;10183;47.808;9.476;2024-03-23T09:03:34;23.17;;;20.67;;
20044;SDS011;10183;47.808;9.476;2024-03-23T09:06:02;22.93;;;20.43;;
20044;SDS011;10183;47.808;9.476;2024-03-23T09:08:31;23.07;;;20.67;;
20044;SDS011;10183;47.808;9.476;2024-03-23T09:10:57;24.47;;;21.73;;
20044;SDS011;10183;47.808;9.476;2024-03-23T09:13:23;23.30;;;20.80;;
20044;SDS011;10183;47.808;9.476;2024-03-23T09:15:49;22.93;;;20.43;;
20044;SDS011;10183;47.808;9.476;2024-03-23T09:18:16;23.10;;;20.57;;
20044;SDS011;10183;47.808;9.476;2024-03-23T09:20:41;22.80;;;20.47;;
20044;SDS011;10183;47.808;9.476;2024-03-23T09:23:07;24.27;;;21.87;;
20044;SDS011;10183;47.808;9.476;2024-03-23T09:25:37;21.60;;;19.20;;
20044;SDS011;10183;47.808;9.476;2024-03-23T09:28:03;24.77;;;21.03;;
20044;SDS011;10183;47.808;9.476;2024-03-23T09:30:35;22.70;;;20.00;;
20044;SDS011;10183;47.808;9.476;2024-03-23T09:33:07;24.37;;;20.10;;
20044;SDS011;10183;47.808;9.476;2024-03-23T09:35:39;27.77;;;23.90;;
20044;SDS011;10183;47.808;9.476;2024-03-23T09:38:06;22.60;;;18.97;;
20044;SDS011;10183;47.808;9.476;2024-03-23T09:40:43;24.13;;;21.67;;
20044;SDS011;10183;47.808;9.476;2024-03-23T09:43:09;24.30;;;21.80;;
20044;SDS011;10183;47.808;9.476;2024-03-23T09:45:38;24.53;;;21.93;;
20044;SDS011;10183;47.808;9.476;2024-03-23T09:48:06;27.30;;;24.70;;
20044;SDS011;10183;47.808;9.476;2024-03-23T09:50:33;24.60;;;22.20;;
20044;SDS011;10183;47.808;9.476;2024-03-23T09:52:59;25.93;;;23.33;;
20044;SDS011;10183;47.808;9.476;2024-03-23T09:55:26;24.53;;;22.13;;
20044;SDS011;10183;47.808;9.476;2024-03-23T09:57:52;29.63;;;26.63;;
20044;SDS011;10183;47.808;9.476;2024-03-23T10:00:17;26.47;;;23.70;;
20044;SDS011;10183;47.808;9.476;2024-03-23T10:02:45;25.47;;;22.67;;
20044;SDS011;10183;47.808;9.476;2024-03-23T10:05:20;27.53;;;24.63;;
20044;SDS011;10183;47.808;9.476;2024-03-23T10:07:50;25.50;;;22.90;;
20044;SDS011;10183;47.808;9.476;2024-03-23T10:10:16;29.87;;;26.77;;
20044;SDS011;10183;47.808;9.476;2024-03-23T10:12:45;27.20;;;24.30;;
20044;SDS011;10183;47.808;9.476;2024-03-23T10:15:25;29.30;;;26.20;;
20044;SDS011;10183;47.808;9.476;2024-03-23T10:17:51;31.00;;;27.23;;
20044;SDS011;10183;47.808;9.476;2024-03-23T10:20:20;35.80;;;27.57;;
20044;SDS011;10183;47.808;9.476;2024-03-23T10:22:48;30.10;;;24.33;;
20044;SDS011;10183;47.808;9.476;2024-03-23T10:25:17;32.57;;;25.87;;
20044;SDS011;10183;47.808;9.476;2024-03-23T10:27:57;32.17;;;28.53;;
20044;SDS011;10183;47.808;9.476;2024-03-23T10:30:24;28.50;;;21.80;;
20044;SDS011;10183;47.808;9.476;2024-03-23T10:32:57;34.03;;;28.43;;
20044;SDS011;10183;47.808;9.476;2024-03-23T10:35:32;27.47;;;23.20;;
20044;SDS011;10183;47.808;9.476;2024-03-23T10:37:58;32.33;;;26.93;;
20044;SDS011;10183;47.808;9.476;2024-03-23T10:40:24;34.10;;;25.80;;
20044;SDS011;10183;47.808;9.476;2024-03-23T10:42:51;34.83;;;25.87;;
20044;SDS011;10183;47.808;9.476;2024-03-23T10:45:20;43.30;;;32.33;;
20044;SDS011;10183;47.808;9.476;2024-03-23T10:47:45;34.40;;;24.60;;
20044;SDS011;10183;47.808;9.476;2024-03-23T10:50:12;29.50;;;25.30;;
20044;SDS011;10183;47.808;9.476;2024-03-23T10:52:38;38.37;;;29.67;;
20044;SDS011;10183;47.808;9.476;2024-03-23T10:55:06;47.80;;;40.13;;
20044;SDS011;10183;47.808;9.476;2024-03-23T10:57:38;50.23;;;44.93;;
20044;SDS011;10183;47.808;9.476;2024-03-23T11:00:07;50.37;;;45.37;;
20044;SDS011;10183;47.808;9.476;2024-03-23T11:02:36;51.20;;;46.30;;
20044;SDS011;10183;47.808;9.476;2024-03-23T11:05:02;52.40;;;46.70;;
20044;SDS011;10183;47.808;9.476;2024-03-23T11:07:51;49.17;;;44.17;;
20044;SDS011;10183;47.808;9.476;2024-03-23T11:10:24;45.87;;;40.60;;
20044;SDS011;10183;47.808;9.476;2024-03-23T11:12:52;49.73;;;44.40;;
20044;SDS011;10183;47.808;9.476;2024-03-23T11:15:18;54.07;;;48.27;;
20044;SDS011;10183;47.808;9.476;2024-03-23T11:18:03;48.30;;;43.17;;
20044;SDS011;10183;47.808;9.476;2024-03-23T11:20:32;58.67;;;52.27;;
20044;SDS011;10183;47.808;9.476;2024-03-23T11:22:59;70.50;;;58.67;;
20044;SDS011;10183;47.808;9.476;2024-03-23T11:25:26;77.63;;;66.53;;
20044;SDS011;10183;47.808;9.476;2024-03-23T11:27:53;112.40;;;93.43;;
20044;SDS011;10183;47.808;9.476;2024-03-23T11:30:26;101.00;;;90.13;;
20044;SDS011;10183;47.808;9.476;2024-03-23T11:32:56;112.67;;;96.33;;
20044;SDS011;10183;47.808;9.476;2024-03-23T11:35:38;104.47;;;88.10;;
20044;SDS011;10183;47.808;9.476;2024-03-23T11:38:12;103.13;;;88.60;;
20044;SDS011;10183;47.808;9.476;2024-03-23T11:40:44;52.90;;;47.30;;
20044;SDS011;10183;47.808;9.476;2024-03-23T11:43:17;95.53;;;84.40;;
20044;SDS011;10183;47.808;9.476;2024-03-23T11:45:48;42.87;;;38.33;;
20044;SDS011;10183;47.808;9.476;2024-03-23T11:48:20;47.00;;;42.20;;
20044;SDS011;10183;47.808;9.476;2024-03-23T11:50:53;44.23;;;38.17;;
20044;SDS011;10183;47.808;9.476;2024-03-23T11:53:23;43.30;;;38.23;;
20044;SDS011;10183;47.808;9.476;2024-03-23T11:56:10;47.03;;;42.00;;
20044;SDS011;10183;47.808;9.476;2024-03-23T11:58:36;45.77;;;41.07;;
20044;SDS011;10183;47.808;9.476;2024-03-23T12:01:04;44.90;;;40.20;;
20044;SDS011;10183;47.808;9.476;2024-03-23T12:03:35;43.27;;;38.77;;
20044;SDS011;10183;47.808;9.476;2024-03-23T12:06:02;34.30;;;29.53;;
20044;SDS011;10183;47.808;9.476;2024-03-23T12:11:16;53.30;;;46.23;;
20044;SDS011;10183;47.808;9.476;2024-03-23T12:13:43;49.47;;;40.43;;
20044;SDS011;10183;47.808;9.476;2024-03-23T12:16:14;49.57;;;39.37;;
20044;SDS011;10183;47.808;9.476;2024-03-23T12:18:48;28.60;;;24.30;;
20044;SDS011;10183;47.808;9.476;2024-03-23T12:21:14;56.27;;;50.27;;
20044;SDS011;10183;47.808;9.476;2024-03-23T12:23:41;52.73;;;47.07;;
20044;SDS011;10183;47.808;9.476;2024-03-23T12:26:09;27.23;;;24.33;;
20044;SDS011;10183;47.808;9.476;2024-03-23T12:28:36;45.27;;;38.97;;
20044;SDS011;10183;47.808;9.476;2024-03-23T12:31:02;91.70;;;81.83;;
20044;SDS011;10183;47.808;9.476;2024-03-23T12:33:28;54.63;;;48.93;;
20044;SDS011;10183;47.808;9.476;2024-03-23T12:35:53;107.13;;;94.60;;
20044;SDS011;10183;47.808;9.476;2024-03-23T12:38:19;86.33;;;70.67;;
20044;SDS011;10183;47.808;9.476;2024-03-23T12:40:49;86.57;;;72.17;;
20044;SDS011;10183;47.808;9.476;2024-03-23T12:43:17;50.30;;;44.80;;
20044;SDS011;10183;47.808;9.476;2024-03-23T12:45:49;46.03;;;40.97;;
20044;SDS011;10183;47.808;9.476;2024-03-23T12:48:15;42.40;;;38.13;;
20044;SDS011;10183;47.808;9.476;2024-03-23T12:50:41;40.10;;;35.83;;
20044;SDS011;10183;47.808;9.476;2024-03-23T12:53:07;36.77;;;32.77;;
20044;SDS011;10183;47.808;9.476;2024-03-23T12:55:36;39.90;;;30.00;;
20044;SDS011;10183;47.808;9.476;2024-03-23T12:58:01;42.10;;;37.60;;
20044;SDS011;10183;47.808;9.476;2024-03-23T13:00:28;45.83;;;41.23;;
20044;SDS011;10183;47.808;9.476;2024-03-23T13:02:53;43.03;;;38.63;;
20044;SDS011;10183;47.808;9.476;2024-03-23T13:05:19;85.90;;;69.50;;
20044;SDS011;10183;47.808;9.476;2024-03-23T13:07:44;44.73;;;40.23;;
20044;SDS011;10183;47.808;9.476;2024-03-23T13:10:10;44.57;;;40.17;;
20044;SDS011;10183;47.808;9.476;2024-03-23T13:12:36;48.27;;;43.60;;
20044;SDS011;10183;47.808;9.476;2024-03-23T13:15:01;47.20;;;42.40;;
20044;SDS011;10183;47.808;9.476;2024-03-23T13:17:27;41.37;;;36.87;;
20044;SDS011;10183;47.808;9.476;2024-03-23T13:19:54;45.00;;;39.43;;
20044;SDS011;10183;47.808;9.476;2024-03-23T13:22:21;66.23;;;56.97;;
20044;SDS011;10183;47.808;9.476;2024-03-23T13:24:47;46.53;;;41.50;;
20044;SDS011;10183;47.808;9.476;2024-03-23T13:27:12;39.37;;;35.17;;
20044;SDS011;10183;47.808;9.476;2024-03-23T13:29:38;75.27;;;60.90;;
20044;SDS011;10183;47.808;9.476;2024-03-23T13:32:04;74.60;;;60.73;;
20044;SDS011;10183;47.808;9.476;2024-03-23T13:34:31;68.43;;;57.10;;
20044;SDS011;10183;47.808;9.476;2024-03-23T13:36:58;66.93;;;58.77;;
20044;SDS011;10183;47.808;9.476;2024-03-23T13:39:24;57.83;;;48.10;;
20044;SDS011;10183;47.808;9.476;2024-03-23T13:41:50;67.03;;;56.00;;
20044;SDS011;10183;47.808;9.476;2024-03-23T13:44:16;64.70;;;52.93;;
20044;SDS011;10183;47.808;9.476;2024-03-23T13:46:42;61.87;;;52.23;;
20044;SDS011;10183;47.808;9.476;2024-03-23T13:49:13;63.93;;;56.93;;
20044;SDS011;10183;47.808;9.476;2024-03-23T13:51:54;49.70;;;40.77;;
20044;SDS011;10183;47.808;9.476;2024-03-23T13:54:21;68.30;;;56.70;;
20044;SDS011;10183;47.808;9.476;2024-03-23T13:56:50;69.10;;;58.17;;
20044;SDS011;10183;47.808;9.476;2024-03-23T13:59:16;61.77;;;53.13;;
20044;SDS011;10183;47.808;9.476;2024-03-23T14:01:42;43.83;;;39.23;;
20044;SDS011;10183;47.808;9.476;2024-03-23T14:04:10;40.73;;;36.33;;
20044;SDS011;10183;47.808;9.476;2024-03-23T14:06:36;63.77;;;54.87;;
20044;SDS011;10183;47.808;9.476;2024-03-23T14:09:03;44.30;;;39.90;;
20044;SDS011;10183;47.808;9.476;2024-03-23T14:11:29;61.93;;;54.70;;
20044;SDS011;10183;47.808;9.476;2024-03-23T14:13:54;57.90;;;49.40;;
20044;SDS011;10183;47.808;9.476;2024-03-23T14:16:20;59.70;;;49.80;;
20044;SDS011;10183;47.808;9.476;2024-03-23T14:18:46;63.50;;;53.50;;
20044;SDS011;10183;47.808;9.476;2024-03-23T14:21:12;58.17;;;50.13;;
20044;SDS011;10183;47.808;9.476;2024-03-23T14:23:38;57.70;;;50.80;;
20044;SDS011;10183;47.808;9.476;2024-03-23T14:26:06;47.37;;;40.90;;
20044;SDS011;10183;47.808;9.476;2024-03-23T14:28:31;51.23;;;41.63;;
20044;SDS011;10183;47.808;9.476;2024-03-23T14:30:57;52.87;;;44.73;;
20044;SDS011;10183;47.808;9.476;2024-03-23T14:33:24;44.70;;;40.00;;
20044;SDS011;10183;47.808;9.476;2024-03-23T14:35:55;48.07;;;42.87;;
20044;SDS011;10183;47.808;9.476;2024-03-23T14:38:24;41.73;;;37.33;;
20044;SDS011;10183;47.808;9.476;2024-03-23T14:40:50;46.57;;;40.57;;
20044;SDS011;10183;47.808;9.476;2024-03-23T14:43:17;49.53;;;43.70;;
20044;SDS011;10183;47.808;9.476;2024-03-23T14:48:45;58.60;;;52.50;;
20044;SDS011;10183;47.808;9.476;2024-03-23T14:51:11;66.15;;;59.25;;
20044;SDS011;10183;47.808;9.476;2024-03-23T14:53:38;55.73;;;50.03;;
20044;SDS011;10183;47.808;9.476;2024-03-23T14:56:05;45.00;;;36.80;;
20044;SDS011;10183;47.808;9.476;2024-03-23T14:58:32;39.67;;;35.65;;
20044;SDS011;10183;47.808;9.476;2024-03-23T15:01:00;46.10;;;37.10;;
20044;SDS011;10183;47.808;9.476;2024-03-23T15:03:37;40.25;;;36.20;;
20044;SDS011;10183;47.808;9.476;2024-03-23T15:06:04;38.10;;;34.37;;
20044;SDS011;10183;47.808;9.476;2024-03-23T15:08:31;35.07;;;31.47;;
20044;SDS011;10183;47.808;9.476;2024-03-23T15:11:00;40.60;;;36.43;;
20044;SDS011;10183;47.808;9.476;2024-03-23T15:13:31;47.40;;;42.30;;
20044;SDS011;10183;47.808;9.476;2024-03-23T15:16:01;51.23;;;45.93;;
20044;SDS011;10183;47.808;9.476;2024-03-23T15:18:28;48.20;;;42.57;;
20044;SDS011;10183;47.808;9.476;2024-03-23T15:20:55;49.67;;;44.57;;
20044;SDS011;10183;47.808;9.476;2024-03-23T15:23:23;39.15;;;35.00;;
20044;SDS011;10183;47.808;9.476;2024-03-23T15:25:55;38.63;;;34.43;;